createdAt,value
2019-02-27T00:02:30.495Z,8.20
2019-02-27T00:05:05.947Z,8.50
2019-02-27T00:07:40.311Z,8.40
2019-02-27T00:10:13.951Z,8.60
2019-02-27T00:12:51.761Z,8.70
2019-02-27T00:15:23.111Z,8.50
2019-02-27T00:17:56.862Z,8.60
2019-02-27T00:20:30.640Z,8.40
2019-02-27T00:23:05.202Z,8.50
2019-02-27T00:25:39.139Z,8.40
2019-02-27T00:28:13.020Z,8.30
2019-02-27T00:30:46.791Z,8.20
2019-02-27T00:33:25.053Z,8.10
2019-02-27T00:35:55.681Z,7.90
2019-02-27T00:38:29.220Z,8.10
2019-02-27T00:41:03.194Z,8.20
2019-02-27T00:43:37.139Z,8.20
2019-02-27T00:46:13.076Z,8.20
2019-02-27T00:48:46.020Z,8.40
2019-02-27T00:51:20.090Z,8.10
2019-02-27T00:53:55.944Z,8.10
2019-02-27T00:56:29.249Z,8.20
2019-02-27T00:59:03.069Z,8.20
2019-02-27T01:01:36.871Z,8.20
2019-02-27T01:04:10.741Z,8.40
2019-02-27T01:06:45.022Z,8.60
2019-02-27T01:09:20.051Z,8.30
2019-02-27T01:11:53.872Z,8.00
2019-02-27T01:14:27.451Z,8.20
2019-02-27T01:17:01.293Z,8.00
2019-02-27T01:19:38.300Z,8.00
2019-02-27T01:22:10.294Z,8.00
2019-02-27T01:24:44.001Z,8.00
2019-02-27T01:27:17.949Z,8.00
2019-02-27T01:29:51.801Z,7.90
2019-02-27T01:32:25.540Z,8.00
2019-02-27T01:34:59.280Z,8.10
2019-02-27T01:37:32.949Z,8.10
2019-02-27T01:40:06.375Z,8.00
2019-02-27T01:42:40.279Z,7.80
2019-02-27T01:45:13.899Z,7.90
2019-02-27T01:47:47.731Z,7.80
2019-02-27T01:50:22.701Z,7.80
2019-02-27T01:52:56.691Z,7.80
2019-02-27T01:55:30.619Z,7.70
2019-02-27T01:58:09.227Z,7.70
2019-02-27T02:00:40.471Z,7.70
2019-02-27T02:03:14.347Z,7.60
2019-02-27T02:05:48.182Z,7.70
2019-02-27T02:08:21.946Z,7.80
2019-02-27T02:10:55.691Z,7.80
2019-02-27T02:13:29.451Z,7.70
2019-02-27T02:16:03.452Z,7.70
2019-02-27T02:18:37.471Z,7.70
2019-02-27T02:21:11.111Z,7.80
2019-02-27T02:23:47.682Z,7.90
2019-02-27T02:26:20.351Z,7.80
2019-02-27T02:28:54.451Z,7.70
2019-02-27T02:31:28.132Z,7.90
2019-02-27T02:34:05.138Z,7.70
2019-02-27T02:36:37.430Z,7.70
2019-02-27T02:39:11.332Z,7.60
2019-02-27T02:41:48.023Z,7.60
2019-02-27T02:44:21.201Z,7.70
2019-02-27T02:46:56.084Z,7.70
2019-02-27T02:49:29.998Z,7.90
2019-02-27T02:52:05.624Z,7.80
2019-02-27T02:54:38.884Z,7.90
2019-02-27T02:57:12.791Z,7.80
2019-02-27T02:59:46.601Z,7.80
2019-02-27T03:02:23.463Z,7.90
2019-02-27T03:04:55.671Z,7.70
2019-02-27T03:07:29.422Z,7.50
2019-02-27T03:10:07.100Z,7.90
2019-02-27T03:12:38.691Z,7.80
2019-02-27T03:15:12.335Z,7.60
2019-02-27T03:17:46.170Z,7.60
2019-02-27T03:20:20.172Z,7.50
2019-02-27T03:22:53.901Z,7.80
2019-02-27T03:25:27.751Z,7.80
2019-02-27T03:28:04.994Z,8.00
2019-02-27T03:30:37.335Z,8.10
2019-02-27T03:33:11.172Z,7.80
2019-02-27T03:35:44.852Z,8.00
2019-02-27T03:38:23.821Z,8.10
2019-02-27T03:40:54.020Z,8.00
2019-02-27T03:43:27.659Z,8.10
2019-02-27T03:46:03.144Z,8.00
2019-02-27T03:48:37.230Z,8.10
2019-02-27T03:51:10.939Z,8.00
2019-02-27T03:53:46.389Z,8.10
2019-02-27T03:56:19.991Z,8.20
2019-02-27T03:58:53.805Z,8.20
2019-02-27T04:01:30.663Z,8.10
2019-02-27T04:04:03.287Z,8.20
2019-02-27T04:06:36.861Z,8.20
2019-02-27T04:09:10.812Z,8.30
2019-02-27T04:11:44.731Z,8.30
2019-02-27T04:14:18.408Z,8.30
2019-02-27T04:16:52.251Z,8.20
2019-02-27T04:19:26.020Z,8.20
2019-02-27T04:22:01.049Z,8.10
2019-02-27T04:24:35.091Z,8.30
2019-02-27T04:27:08.932Z,8.20
2019-02-27T04:29:42.780Z,8.10
2019-02-27T04:32:16.334Z,8.00
2019-02-27T04:34:50.030Z,8.10
2019-02-27T04:37:23.673Z,8.00
2019-02-27T04:39:57.451Z,8.00
2019-02-27T04:42:31.410Z,8.00
2019-02-27T04:45:05.739Z,7.90
2019-02-27T04:47:39.499Z,7.70
2019-02-27T04:50:13.332Z,7.80
2019-02-27T04:52:47.020Z,7.80
2019-02-27T04:55:20.891Z,7.90
2019-02-27T04:57:54.710Z,7.80
2019-02-27T05:00:28.421Z,7.90
2019-02-27T05:03:02.371Z,8.00
2019-02-27T05:05:36.122Z,8.10
2019-02-27T05:08:09.770Z,8.00
2019-02-27T05:10:43.579Z,7.90
2019-02-27T05:13:20.464Z,8.00
2019-02-27T05:15:52.805Z,8.10
2019-02-27T05:18:29.296Z,7.90
2019-02-27T05:21:02.439Z,7.90
2019-02-27T05:23:35.983Z,7.90
2019-02-27T05:26:09.668Z,7.80
2019-02-27T05:28:43.331Z,7.80
2019-02-27T05:31:19.027Z,7.80
2019-02-27T05:33:52.234Z,7.70
2019-02-27T05:36:26.248Z,7.80
2019-02-27T05:39:00.011Z,7.90
2019-02-27T05:41:33.797Z,7.70
2019-02-27T05:44:35.680Z,7.70
2019-02-27T05:46:46.650Z,7.50
2019-02-27T05:49:20.322Z,7.50
2019-02-27T05:51:54.281Z,7.60
2019-02-27T05:54:29.979Z,7.70
2019-02-27T05:57:03.661Z,7.70
2019-02-27T05:59:37.510Z,7.50
2019-02-27T06:02:11.522Z,7.50
2019-02-27T06:04:45.400Z,7.40
2019-02-27T06:07:19.576Z,7.40
2019-02-27T06:09:53.887Z,7.40
2019-02-27T06:12:27.670Z,7.50
2019-02-27T06:15:01.291Z,7.50
2019-02-27T06:17:43.117Z,7.50
2019-02-27T06:20:10.339Z,7.50
2019-02-27T06:22:44.191Z,7.40
2019-02-27T06:25:21.827Z,7.40
2019-02-27T06:27:53.471Z,7.60
2019-02-27T06:30:30.333Z,7.60
2019-02-27T06:33:03.229Z,7.60
2019-02-27T06:35:37.232Z,7.80
2019-02-27T06:38:10.810Z,7.80
2019-02-27T06:40:44.534Z,7.80
2019-02-27T06:43:18.480Z,7.70
2019-02-27T06:45:54.145Z,7.50
2019-02-27T06:48:27.610Z,7.70
2019-02-27T06:51:01.654Z,7.80
2019-02-27T06:53:35.619Z,7.80
2019-02-27T06:56:09.151Z,8.20
2019-02-27T06:58:42.750Z,8.10
2019-02-27T07:01:16.319Z,7.90
2019-02-27T07:03:50.079Z,7.70
2019-02-27T07:06:23.710Z,7.70
2019-02-27T07:08:58.060Z,7.90
2019-02-27T07:11:31.899Z,7.80
2019-02-27T07:14:05.649Z,7.70
2019-02-27T07:16:39.711Z,7.60
2019-02-27T07:19:15.763Z,7.60
2019-02-27T07:21:48.570Z,7.50
2019-02-27T07:24:22.151Z,7.70
2019-02-27T07:26:55.870Z,7.70
2019-02-27T07:29:29.609Z,7.80
2019-02-27T07:32:03.816Z,7.90
2019-02-27T07:34:37.851Z,7.70
2019-02-27T07:37:12.963Z,7.80
2019-02-27T07:39:47.319Z,8.20
2019-02-27T07:42:21.049Z,8.40
2019-02-27T07:44:54.850Z,8.20
2019-02-27T07:47:28.799Z,8.30
2019-02-27T07:50:05.516Z,8.40
2019-02-27T07:52:38.199Z,8.80
2019-02-27T07:55:21.085Z,8.70
2019-02-27T07:57:47.109Z,8.60
2019-02-27T08:00:20.834Z,8.90
2019-02-27T08:02:54.637Z,9.00
2019-02-27T08:05:29.192Z,9.10
2019-02-27T08:08:03.452Z,9.20
2019-02-27T08:10:37.590Z,9.50
2019-02-27T08:13:11.274Z,9.50
2019-02-27T08:15:45.491Z,9.60
2019-02-27T08:18:29.353Z,9.40
2019-02-27T08:20:55.263Z,9.50
2019-02-27T08:23:29.241Z,9.50
2019-02-27T08:26:05.096Z,9.70
2019-02-27T08:28:38.660Z,9.80
2019-02-27T08:31:12.219Z,9.80
2019-02-27T08:33:45.869Z,10.10
2019-02-27T08:36:19.870Z,10.00
2019-02-27T08:38:53.751Z,10.00
2019-02-27T08:41:29.151Z,10.00
2019-02-27T08:44:03.720Z,10.10
2019-02-27T08:46:37.729Z,10.10
2019-02-27T08:49:11.658Z,10.20
2019-02-27T08:51:45.572Z,10.40
2019-02-27T08:54:19.332Z,10.60
2019-02-27T08:56:53.090Z,10.80
2019-02-27T08:59:26.852Z,10.90
2019-02-27T09:02:00.630Z,11.10
2019-02-27T09:04:34.379Z,11.10
2019-02-27T09:07:07.756Z,11.20
2019-02-27T09:09:41.451Z,11.30
2019-02-27T09:12:15.409Z,11.30
2019-02-27T09:14:49.491Z,11.50
2019-02-27T09:17:26.827Z,11.50
2019-02-27T09:19:58.811Z,11.80
2019-02-27T09:22:33.866Z,11.70
2019-02-27T09:25:07.710Z,11.80
2019-02-27T09:27:41.571Z,11.60
2019-02-27T09:30:15.210Z,11.80
2019-02-27T09:32:49.200Z,12.10
2019-02-27T09:35:22.830Z,11.90
2019-02-27T09:37:56.552Z,11.60
2019-02-27T09:40:30.344Z,11.60
2019-02-27T09:43:06.270Z,11.80
2019-02-27T09:45:40.008Z,12.00
2019-02-27T09:48:13.691Z,11.80
2019-02-27T09:50:48.240Z,11.50
2019-02-27T09:56:32.752Z,11.70
2019-02-27T09:59:08.520Z,11.60
2019-02-27T10:01:42.450Z,11.80
2019-02-27T10:04:16.510Z,11.80
2019-02-27T10:06:50.672Z,11.90
2019-02-27T10:09:24.370Z,12.40
2019-02-27T10:11:58.052Z,12.50
2019-02-27T10:14:31.838Z,12.40
2019-02-27T10:17:06.823Z,12.70
2019-02-27T10:19:41.552Z,12.30
2019-02-27T10:22:17.691Z,12.20
2019-02-27T10:24:50.849Z,12.30
2019-02-27T10:27:25.491Z,12.30
2019-02-27T10:29:59.990Z,12.40
2019-02-27T10:32:36.411Z,12.50
2019-02-27T10:35:09.951Z,12.60
2019-02-27T10:37:44.207Z,12.80
2019-02-27T10:40:17.965Z,12.90
2019-02-27T10:42:52.671Z,12.80
2019-02-27T10:45:27.251Z,12.90
2019-02-27T10:48:00.914Z,12.90
2019-02-27T10:50:36.117Z,12.90
2019-02-27T10:53:10.119Z,13.00
2019-02-27T10:55:46.414Z,13.00
2019-02-27T10:58:19.118Z,13.10
2019-02-27T11:00:52.690Z,13.00
2019-02-27T11:03:27.434Z,13.00
2019-02-27T11:06:01.433Z,13.10
2019-02-27T11:08:35.210Z,13.10
2019-02-27T11:11:09.074Z,13.20
2019-02-27T11:13:43.578Z,13.30
2019-02-27T11:16:20.800Z,13.50
2019-02-27T11:18:53.370Z,13.40
2019-02-27T11:21:28.111Z,13.20
2019-02-27T11:24:01.668Z,13.30
2019-02-27T11:26:35.272Z,13.70
2019-02-27T11:29:09.632Z,13.80
2019-02-27T11:31:45.590Z,13.50
2019-02-27T11:34:18.853Z,13.80
2019-02-27T11:36:53.231Z,13.70
2019-02-27T11:39:26.878Z,13.70
2019-02-27T11:42:00.650Z,13.60
2019-02-27T11:44:34.473Z,13.60
2019-02-27T11:47:10.955Z,13.50
2019-02-27T11:49:43.892Z,13.50
2019-02-27T11:52:17.919Z,13.70
2019-02-27T11:54:51.951Z,13.60
2019-02-27T11:57:27.279Z,13.70
2019-02-27T12:00:01.879Z,13.70
2019-02-27T12:02:37.859Z,13.70
2019-02-27T12:05:10.837Z,13.60
2019-02-27T12:07:44.524Z,13.70
2019-02-27T12:10:18.122Z,13.60
2019-02-27T12:12:51.663Z,13.60
2019-02-27T12:15:27.230Z,13.60
2019-02-27T12:18:01.666Z,13.60
2019-02-27T12:20:35.743Z,13.60
2019-02-27T12:23:10.092Z,13.60
2019-02-27T12:25:44.806Z,13.60
2019-02-27T12:28:19.566Z,13.70
2019-02-27T12:30:53.463Z,13.80
2019-02-27T12:33:29.377Z,14.20
2019-02-27T12:36:02.386Z,14.10
2019-02-27T12:38:36.083Z,14.00
2019-02-27T12:41:09.803Z,14.20
2019-02-27T12:43:43.325Z,14.20
2019-02-27T12:46:16.962Z,14.30
2019-02-27T12:48:50.603Z,14.50
2019-02-27T12:51:24.283Z,14.60
2019-02-27T12:53:58.243Z,14.30
2019-02-27T12:56:31.904Z,14.00
2019-02-27T12:59:05.583Z,14.30
2019-02-27T13:01:39.562Z,14.50
2019-02-27T13:04:15.959Z,14.60
2019-02-27T13:06:48.990Z,14.60
2019-02-27T13:09:24.587Z,14.60
2019-02-27T13:11:57.921Z,14.50
2019-02-27T13:14:33.345Z,14.20
2019-02-27T13:17:07.589Z,14.30
2019-02-27T13:19:41.842Z,14.40
2019-02-27T13:22:16.044Z,14.40
2019-02-27T13:24:50.323Z,14.40
2019-02-27T13:27:25.233Z,14.60
2019-02-27T13:30:08.357Z,14.80
2019-02-27T13:32:34.446Z,14.40
2019-02-27T13:35:07.979Z,14.30
2019-02-27T13:37:44.663Z,14.30
2019-02-27T13:40:17.628Z,14.30
2019-02-27T13:42:53.498Z,14.20
2019-02-27T13:45:27.119Z,14.40
2019-02-27T13:48:04.821Z,14.40
2019-02-27T13:50:36.000Z,14.50
2019-02-27T13:53:09.922Z,14.50
2019-02-27T13:55:45.281Z,14.50
2019-02-27T13:58:19.240Z,14.40
2019-02-27T14:00:53.689Z,14.30
2019-02-27T14:03:28.101Z,14.10
2019-02-27T14:06:02.080Z,14.20
2019-02-27T14:08:35.866Z,14.00
2019-02-27T14:11:09.780Z,14.20
2019-02-27T14:13:44.835Z,14.00
2019-02-27T14:16:18.981Z,13.70
2019-02-27T14:18:54.095Z,13.60
2019-02-27T14:21:28.300Z,13.70
2019-02-27T14:24:01.876Z,13.80
2019-02-27T14:26:38.335Z,13.80
2019-02-27T14:29:11.302Z,13.60
2019-02-27T14:31:45.203Z,13.50
2019-02-27T14:34:19.001Z,13.20
2019-02-27T14:36:52.613Z,13.30
2019-02-27T14:39:26.966Z,13.50
2019-02-27T14:42:01.764Z,13.40
2019-02-27T14:44:35.521Z,13.30
2019-02-27T14:47:09.481Z,13.10
2019-02-27T14:49:42.941Z,13.20
2019-02-27T14:52:16.641Z,13.10
2019-02-27T14:54:50.210Z,13.10
2019-02-27T14:57:23.881Z,13.10
2019-02-27T14:59:57.441Z,13.00
2019-02-27T15:02:31.140Z,13.00
2019-02-27T15:05:08.326Z,12.90
2019-02-27T15:07:40.800Z,13.10
2019-02-27T15:10:14.560Z,13.10
2019-02-27T15:12:53.938Z,13.10
2019-02-27T15:15:24.230Z,13.00
2019-02-27T15:17:58.201Z,13.10
2019-02-27T15:20:31.901Z,13.00
2019-02-27T15:23:05.442Z,12.80
2019-02-27T15:25:43.104Z,12.70
2019-02-27T15:28:15.082Z,12.70
2019-02-27T15:30:48.741Z,12.70
2019-02-27T15:33:22.401Z,12.50
2019-02-27T15:35:56.484Z,12.40
2019-02-27T15:38:30.802Z,12.20
2019-02-27T15:41:05.608Z,12.10
2019-02-27T15:43:39.502Z,12.00
2019-02-27T15:46:13.061Z,11.90
2019-02-27T15:48:46.901Z,11.90
2019-02-27T15:51:20.360Z,12.00
2019-02-27T15:53:54.023Z,11.90
2019-02-27T15:56:27.841Z,12.10
2019-02-27T15:59:05.076Z,12.20
2019-02-27T16:01:36.988Z,12.20
2019-02-27T16:04:11.141Z,12.20
2019-02-27T16:06:45.041Z,11.90
2019-02-27T16:09:18.683Z,11.70
2019-02-27T16:11:52.688Z,11.60
2019-02-27T16:14:26.341Z,11.60
2019-02-27T16:16:59.921Z,11.30
2019-02-27T16:19:33.980Z,11.10
2019-02-27T16:22:08.081Z,11.30
2019-02-27T16:24:43.815Z,11.10
2019-02-27T16:27:16.810Z,10.80
2019-02-27T16:29:50.326Z,10.70
2019-02-27T16:32:24.002Z,10.40
2019-02-27T16:34:59.871Z,10.10
2019-02-27T16:37:33.326Z,9.90
2019-02-27T16:40:07.084Z,9.90
2019-02-27T16:42:40.603Z,9.80
2019-02-27T16:45:13.983Z,9.80
2019-02-27T16:47:47.826Z,9.60
2019-02-27T16:50:24.807Z,9.50
2019-02-27T16:52:56.648Z,9.40
2019-02-27T16:55:30.220Z,9.60
2019-02-27T16:58:03.840Z,9.70
2019-02-27T17:00:37.502Z,9.60
2019-02-27T17:03:13.446Z,9.70
2019-02-27T17:05:46.721Z,9.40
2019-02-27T17:08:20.286Z,9.30
2019-02-27T17:10:54.244Z,9.40
2019-02-27T17:13:27.920Z,9.40
2019-02-27T17:16:02.214Z,9.30
2019-02-27T17:18:35.681Z,9.40
2019-02-27T17:21:09.483Z,9.30
2019-02-27T17:23:46.540Z,9.10
2019-02-27T17:26:18.565Z,9.00
2019-02-27T17:28:52.689Z,9.10
2019-02-27T17:31:28.021Z,9.30
2019-02-27T17:34:01.516Z,9.20
2019-02-27T17:36:34.998Z,9.10
2019-02-27T17:39:08.687Z,9.10
2019-02-27T17:41:44.652Z,9.10
2019-02-27T17:44:18.105Z,9.10
2019-02-27T17:46:51.698Z,9.00
2019-02-27T17:49:27.143Z,8.90
2019-02-27T17:52:00.924Z,8.90
2019-02-27T17:54:35.022Z,8.80
2019-02-27T17:57:08.502Z,8.90
2019-02-27T17:59:43.049Z,8.80
2019-02-27T18:02:17.032Z,8.80
2019-02-27T18:04:53.593Z,9.00
2019-02-27T18:07:34.103Z,9.00
2019-02-27T18:10:02.238Z,8.90
2019-02-27T18:12:36.070Z,8.70
2019-02-27T18:15:09.754Z,8.50
2019-02-27T18:17:43.220Z,8.50
2019-02-27T18:20:17.140Z,8.50
2019-02-27T18:22:50.781Z,8.70
2019-02-27T18:25:24.300Z,8.60
2019-02-27T18:27:59.556Z,8.50
2019-02-27T18:30:33.360Z,8.40
2019-02-27T18:33:06.940Z,8.40
2019-02-27T18:35:40.871Z,8.50
2019-02-27T18:38:14.401Z,8.30
2019-02-27T18:40:48.841Z,8.30
2019-02-27T18:43:22.430Z,8.00
2019-02-27T18:45:56.301Z,7.80
2019-02-27T18:48:30.120Z,7.80
2019-02-27T18:51:03.644Z,7.70
2019-02-27T18:53:37.593Z,7.70
2019-02-27T18:56:11.159Z,7.80
2019-02-27T18:58:46.240Z,7.80
2019-02-27T19:01:21.279Z,7.70
2019-02-27T19:04:00.296Z,7.80
2019-02-27T19:06:30.120Z,7.80
2019-02-27T19:09:04.541Z,7.80
2019-02-27T19:11:38.248Z,7.80
2019-02-27T19:14:11.881Z,7.80
2019-02-27T19:16:47.940Z,8.00
2019-02-27T19:19:21.639Z,8.00
2019-02-27T19:21:55.241Z,7.90
2019-02-27T19:24:29.015Z,7.80
2019-02-27T19:27:02.475Z,7.80
2019-02-27T19:29:36.022Z,7.80
2019-02-27T19:32:09.824Z,7.70
2019-02-27T19:34:44.444Z,7.90
2019-02-27T19:37:18.921Z,7.90
2019-02-27T19:39:53.384Z,7.70
2019-02-27T19:42:28.561Z,7.40
2019-02-27T19:45:04.397Z,7.40
2019-02-27T19:47:37.823Z,7.30
2019-02-27T19:50:13.120Z,7.30
2019-02-27T19:52:46.619Z,7.50
2019-02-27T19:55:23.752Z,7.50
2019-02-27T19:57:55.500Z,7.50
2019-02-27T20:00:33.783Z,7.60
2019-02-27T20:03:04.300Z,7.60
2019-02-27T20:05:37.901Z,7.70
2019-02-27T20:08:11.583Z,7.70
2019-02-27T20:10:45.032Z,7.60
2019-02-27T20:13:18.740Z,7.50
2019-02-27T20:15:53.760Z,7.60
2019-02-27T20:18:27.621Z,7.30
2019-02-27T20:21:01.459Z,7.10
2019-02-27T20:23:35.020Z,7.20
2019-02-27T20:26:13.979Z,7.00
2019-02-27T20:28:43.882Z,7.10
2019-02-27T20:31:20.182Z,7.10
2019-02-27T20:33:52.720Z,7.30
2019-02-27T20:36:29.846Z,6.90
2019-02-27T20:39:03.264Z,6.70
2019-02-27T20:41:39.626Z,6.70
2019-02-27T20:44:12.201Z,6.80
2019-02-27T20:46:46.341Z,6.90
2019-02-27T20:49:21.600Z,6.90
2019-02-27T20:51:55.122Z,6.80
2019-02-27T20:54:28.840Z,6.80
2019-02-27T20:57:02.516Z,6.90
2019-02-27T20:59:35.945Z,6.90
2019-02-27T21:02:09.580Z,6.90
2019-02-27T21:04:43.162Z,6.90
2019-02-27T21:07:22.322Z,7.00
2019-02-27T21:09:52.440Z,7.10
2019-02-27T21:12:26.177Z,7.00
2019-02-27T21:15:00.256Z,7.00
2019-02-27T21:17:33.941Z,7.10
2019-02-27T21:20:11.290Z,7.10
2019-02-27T21:22:43.181Z,6.90
2019-02-27T21:25:16.780Z,6.90
2019-02-27T21:27:50.803Z,7.10
2019-02-27T21:30:24.541Z,6.80
2019-02-27T21:32:58.067Z,6.60
2019-02-27T21:35:31.957Z,6.30
2019-02-27T21:38:05.605Z,6.20
2019-02-27T21:40:39.087Z,6.20
2019-02-27T21:43:13.082Z,6.20
2019-02-27T21:45:46.983Z,6.30
2019-02-27T21:48:23.487Z,6.40
2019-02-27T21:50:55.361Z,6.30
2019-02-27T21:53:29.614Z,6.30
2019-02-27T21:56:03.403Z,6.30
2019-02-27T21:58:36.498Z,6.20
2019-02-27T22:01:09.483Z,6.50
2019-02-27T22:03:42.542Z,6.30
2019-02-27T22:06:16.270Z,6.20
2019-02-27T22:08:49.802Z,6.10
2019-02-27T22:11:26.690Z,6.00
2019-02-27T22:13:58.764Z,6.10
2019-02-27T22:16:32.621Z,6.10
2019-02-27T22:19:06.281Z,6.30
2019-02-27T22:21:40.821Z,6.20
2019-02-27T22:24:15.065Z,6.40
2019-02-27T22:26:48.679Z,6.50
2019-02-27T22:29:22.220Z,6.40
2019-02-27T22:31:55.881Z,6.40
2019-02-27T22:34:30.050Z,6.40
2019-02-27T22:37:02.981Z,6.30
2019-02-27T22:39:36.040Z,6.30
2019-02-27T22:42:09.081Z,6.50
2019-02-27T22:44:42.001Z,6.40
2019-02-27T22:47:21.156Z,6.30
2019-02-27T22:49:51.639Z,6.10
2019-02-27T22:52:25.310Z,6.30
2019-02-27T22:54:58.411Z,6.40
2019-02-27T22:57:31.882Z,6.20
2019-02-27T23:00:05.100Z,6.20
2019-02-27T23:02:38.849Z,6.00
2019-02-27T23:05:13.182Z,5.90
2019-02-27T23:07:48.121Z,5.90
2019-02-27T23:10:22.061Z,5.80
2019-02-27T23:12:55.941Z,6.10
2019-02-27T23:15:29.642Z,6.00
2019-02-27T23:18:05.974Z,5.90
2019-02-27T23:20:39.160Z,6.00
2019-02-27T23:23:12.157Z,6.10
2019-02-27T23:25:46.481Z,6.30
2019-02-27T23:28:20.061Z,6.30
2019-02-27T23:30:53.010Z,6.20
2019-02-27T23:33:25.960Z,6.20
2019-02-27T23:35:59.921Z,6.10
2019-02-27T23:38:34.755Z,6.10
2019-02-27T23:41:09.401Z,6.30
2019-02-27T23:43:42.812Z,6.10
2019-02-27T23:46:18.487Z,6.20
2019-02-27T23:48:52.206Z,6.20
2019-02-27T23:51:26.120Z,6.20
2019-02-27T23:54:01.332Z,6.10
2019-02-27T23:56:35.439Z,6.10
2019-02-27T23:59:09.001Z,6.10
